Terminal Aerodrome Forecast
Issued by NWS Twin Cities, MN

Home | Current Version | Previous Version | Text Only | Print | Product List | Glossary Off
Versions: 1 2 3 4 5 6 7 8 9 10 11 12 13 14 15 16 17 18 19 20 21 22

186
FTUS43 KMPX 190615 AAA
TAFSTC
TAF AMD
KSTC 190615Z 1906/2006 VRB03KT 5SM BR SCT250
      TEMPO 1908/1912 2SM BR
     FM191400 12006KT P6SM BKN150
     FM191800 14010KT P6SM BKN150=

USA.gov is the U.S. government's official web portal to all federal, state and local government web resources and services.